sensor_id;sensor_type;location;lat;lon;timestamp;pressure;altitude;pressure_sealevel;temperature;humidity
41312;BME280;27061;41.648;24.568;2023-06-14T00:01:59;85790.66;;;15.50;78.09
41312;BME280;27061;41.648;24.568;2023-06-14T00:04:34;85682.22;;;14.71;77.55
41312;BME280;27061;41.648;24.568;2023-06-14T00:07:01;85779.44;;;15.52;77.57
41312;BME280;27061;41.648;24.568;2023-06-14T00:09:30;85447.09;;;13.00;77.66
41312;BME280;27061;41.648;24.568;2023-06-14T00:11:57;85681.53;;;14.71;76.99
41312;BME280;27061;41.648;24.568;2023-06-14T00:14:24;85566.25;;;13.89;76.59
41312;BME280;27061;41.648;24.568;2023-06-14T00:16:52;85612.19;;;14.13;78.21
41312;BME280;27061;41.648;24.568;2023-06-14T00:19:26;85782.34;;;15.48;78.47
41312;BME280;27061;41.648;24.568;2023-06-14T00:21:53;85778.19;;;15.47;78.41
41312;BME280;27061;41.648;24.568;2023-06-14T00:24:20;85748.88;;;15.25;78.45
41312;BME280;27061;41.648;24.568;2023-06-14T00:26:48;85639.97;;;14.40;78.59
41312;BME280;27061;41.648;24.568;2023-06-14T00:29:16;85600.56;;;14.06;78.88
41312;BME280;27061;41.648;24.568;2023-06-14T00:31:43;85515.06;;;13.55;78.34
41312;BME280;27061;41.648;24.568;2023-06-14T00:34:13;85555.94;;;13.85;77.80
41312;BME280;27061;41.648;24.568;2023-06-14T00:36:40;85758.97;;;15.36;78.52
41312;BME280;27061;41.648;24.568;2023-06-14T00:39:07;85722.97;;;15.06;78.77
41312;BME280;27061;41.648;24.568;2023-06-14T00:41:36;85707.75;;;15.02;78.87
41312;BME280;27061;41.648;24.568;2023-06-14T00:44:05;85746.69;;;15.27;78.92
41312;BME280;27061;41.648;24.568;2023-06-14T00:46:32;85719.81;;;14.95;79.30
41312;BME280;27061;41.648;24.568;2023-06-14T00:49:00;85724.38;;;15.27;78.88
41312;BME280;27061;41.648;24.568;2023-06-14T00:51:28;85759.47;;;15.43;78.45
41312;BME280;27061;41.648;24.568;2023-06-14T00:53:55;85668.88;;;14.74;78.31
41312;BME280;27061;41.648;24.568;2023-06-14T00:56:22;85753.28;;;15.41;78.73
41312;BME280;27061;41.648;24.568;2023-06-14T00:58:50;85714.53;;;15.08;79.21
41312;BME280;27061;41.648;24.568;2023-06-14T01:01:18;85684.44;;;14.89;78.79
41312;BME280;27061;41.648;24.568;2023-06-14T01:03:45;85681.09;;;14.85;78.39
41312;BME280;27061;41.648;24.568;2023-06-14T01:12:35;85740.13;;;15.37;79.09
41312;BME280;27061;41.648;24.568;2023-06-14T01:15:06;85694.84;;;15.14;78.51
41312;BME280;27061;41.648;24.568;2023-06-14T01:17:35;85719.69;;;15.22;78.83
41312;BME280;27061;41.648;24.568;2023-06-14T01:20:12;85711.19;;;15.26;78.36
41312;BME280;27061;41.648;24.568;2023-06-14T01:22:52;85667.03;;;14.89;78.22
41312;BME280;27061;41.648;24.568;2023-06-14T01:25:21;85658.88;;;14.83;77.69
41312;BME280;27061;41.648;24.568;2023-06-14T01:28:04;85709.03;;;15.06;78.18
41312;BME280;27061;41.648;24.568;2023-06-14T01:30:41;85689.41;;;15.10;77.69
41312;BME280;27061;41.648;24.568;2023-06-14T01:33:15;85689.03;;;14.99;77.50
41312;BME280;27061;41.648;24.568;2023-06-14T01:35:49;85669.50;;;14.99;77.38
41312;BME280;27061;41.648;24.568;2023-06-14T01:38:21;85717.75;;;15.39;77.59
41312;BME280;27061;41.648;24.568;2023-06-14T01:40:50;85718.56;;;15.35;77.53
41312;BME280;27061;41.648;24.568;2023-06-14T01:43:19;85724.97;;;15.32;78.55
41312;BME280;27061;41.648;24.568;2023-06-14T01:45:48;85727.13;;;15.29;79.50
41312;BME280;27061;41.648;24.568;2023-06-14T01:48:19;85728.47;;;15.30;79.53
41312;BME280;27061;41.648;24.568;2023-06-14T01:50:48;85671.25;;;14.88;78.82
41312;BME280;27061;41.648;24.568;2023-06-14T01:53:16;85559.53;;;14.05;78.82
41312;BME280;27061;41.648;24.568;2023-06-14T01:55:43;85700.06;;;15.03;79.40
41312;BME280;27061;41.648;24.568;2023-06-14T01:58:16;85567.16;;;14.06;79.79
41312;BME280;27061;41.648;24.568;2023-06-14T02:00:46;85716.66;;;15.07;79.71
41312;BME280;27061;41.648;24.568;2023-06-14T02:03:14;85663.19;;;14.78;80.00
41312;BME280;27061;41.648;24.568;2023-06-14T02:05:42;85723.28;;;15.18;79.64
41312;BME280;27061;41.648;24.568;2023-06-14T02:08:09;85703.53;;;15.04;79.49
41312;BME280;27061;41.648;24.568;2023-06-14T02:10:37;85704.69;;;14.88;79.64
41312;BME280;27061;41.648;24.568;2023-06-14T02:13:04;85651.25;;;14.58;79.82
41312;BME280;27061;41.648;24.568;2023-06-14T02:15:31;85739.69;;;15.28;79.44
41312;BME280;27061;41.648;24.568;2023-06-14T02:18:02;85709.78;;;15.04;79.93
41312;BME280;27061;41.648;24.568;2023-06-14T02:20:32;85693.50;;;14.90;80.03
41312;BME280;27061;41.648;24.568;2023-06-14T02:23:00;85728.59;;;15.26;79.86
41312;BME280;27061;41.648;24.568;2023-06-14T02:25:30;85733.38;;;15.30;79.24
41312;BME280;27061;41.648;24.568;2023-06-14T02:27:58;85567.09;;;14.08;78.76
41312;BME280;27061;41.648;24.568;2023-06-14T02:30:25;85699.44;;;15.00;79.01
41312;BME280;27061;41.648;24.568;2023-06-14T02:32:55;85753.78;;;15.24;79.34
41312;BME280;27061;41.648;24.568;2023-06-14T02:35:23;85744.00;;;15.25;79.29
41312;BME280;27061;41.648;24.568;2023-06-14T02:37:55;85688.28;;;14.78;81.20
41312;BME280;27061;41.648;24.568;2023-06-14T02:40:22;85698.00;;;14.79;81.88
41312;BME280;27061;41.648;24.568;2023-06-14T02:42:50;85751.16;;;15.18;81.73
41312;BME280;27061;41.648;24.568;2023-06-14T02:45:17;85702.16;;;14.80;81.48
41312;BME280;27061;41.648;24.568;2023-06-14T02:47:45;85730.09;;;15.00;81.52
41312;BME280;27061;41.648;24.568;2023-06-14T02:50:13;85651.03;;;14.42;81.34
41312;BME280;27061;41.648;24.568;2023-06-14T02:52:42;85714.44;;;14.89;81.14
41312;BME280;27061;41.648;24.568;2023-06-14T02:55:09;85711.63;;;14.89;80.60
41312;BME280;27061;41.648;24.568;2023-06-14T02:57:41;85703.63;;;14.77;80.26
41312;BME280;27061;41.648;24.568;2023-06-14T03:00:10;85689.91;;;14.71;80.30
41312;BME280;27061;41.648;24.568;2023-06-14T03:02:42;85744.22;;;15.17;80.46
41312;BME280;27061;41.648;24.568;2023-06-14T03:05:11;85740.25;;;15.10;80.41
41312;BME280;27061;41.648;24.568;2023-06-14T03:07:38;85616.44;;;14.10;80.43
41312;BME280;27061;41.648;24.568;2023-06-14T03:10:09;85643.81;;;14.26;81.67
41312;BME280;27061;41.648;24.568;2023-06-14T03:12:39;85675.63;;;14.58;81.25
41312;BME280;27061;41.648;24.568;2023-06-14T03:15:08;85740.69;;;14.96;80.92
41312;BME280;27061;41.648;24.568;2023-06-14T03:17:38;85616.66;;;14.02;80.63
41312;BME280;27061;41.648;24.568;2023-06-14T03:20:08;85710.53;;;14.80;80.99
41312;BME280;27061;41.648;24.568;2023-06-14T03:22:35;85721.38;;;14.90;81.04
41312;BME280;27061;41.648;24.568;2023-06-14T03:25:03;85758.00;;;15.23;80.66
41312;BME280;27061;41.648;24.568;2023-06-14T03:27:35;85748.63;;;15.10;80.17
41312;BME280;27061;41.648;24.568;2023-06-14T03:30:03;85766.41;;;15.21;80.88
41312;BME280;27061;41.648;24.568;2023-06-14T03:32:32;85762.31;;;15.18;81.46
41312;BME280;27061;41.648;24.568;2023-06-14T03:35:01;85625.31;;;14.16;81.45
41312;BME280;27061;41.648;24.568;2023-06-14T03:37:28;85732.25;;;14.98;81.24
41312;BME280;27061;41.648;24.568;2023-06-14T03:39:55;85766.34;;;15.23;81.30
41312;BME280;27061;41.648;24.568;2023-06-14T03:42:24;85712.00;;;14.77;81.80
41312;BME280;27061;41.648;24.568;2023-06-14T03:44:52;85771.06;;;15.29;81.47
41312;BME280;27061;41.648;24.568;2023-06-14T03:47:21;85755.50;;;15.13;81.19
41312;BME280;27061;41.648;24.568;2023-06-14T03:49:50;85749.94;;;15.13;81.91
41312;BME280;27061;41.648;24.568;2023-06-14T03:52:17;85691.84;;;14.51;81.90
41312;BME280;27061;41.648;24.568;2023-06-14T03:54:46;85702.50;;;14.68;83.58
41312;BME280;27061;41.648;24.568;2023-06-14T03:57:17;85678.09;;;14.45;83.38
41312;BME280;27061;41.648;24.568;2023-06-14T03:59:47;85741.31;;;14.98;83.92
41312;BME280;27061;41.648;24.568;2023-06-14T04:02:14;85744.59;;;15.05;83.81
41312;BME280;27061;41.648;24.568;2023-06-14T04:04:45;85764.56;;;15.14;84.04
41312;BME280;27061;41.648;24.568;2023-06-14T04:07:12;85725.09;;;14.82;84.23
41312;BME280;27061;41.648;24.568;2023-06-14T04:09:40;85768.03;;;15.14;84.42
41312;BME280;27061;41.648;24.568;2023-06-14T04:12:08;85616.31;;;14.14;83.48
41312;BME280;27061;41.648;24.568;2023-06-14T04:14:41;85600.72;;;14.00;83.46
41312;BME280;27061;41.648;24.568;2023-06-14T04:17:10;85572.22;;;13.75;83.62
41312;BME280;27061;41.648;24.568;2023-06-14T04:19:38;85734.41;;;14.95;84.87
41312;BME280;27061;41.648;24.568;2023-06-14T04:22:06;85753.31;;;15.16;86.03
41312;BME280;27061;41.648;24.568;2023-06-14T04:24:35;85789.72;;;15.34;86.54
41312;BME280;27061;41.648;24.568;2023-06-14T04:27:04;85724.63;;;14.96;85.83
41312;BME280;27061;41.648;24.568;2023-06-14T04:29:31;85633.72;;;14.14;85.44
41312;BME280;27061;41.648;24.568;2023-06-14T04:32:05;85773.22;;;15.26;85.70
41312;BME280;27061;41.648;24.568;2023-06-14T04:34:33;85649.38;;;14.26;85.97
41312;BME280;27061;41.648;24.568;2023-06-14T04:37:02;85750.84;;;15.06;85.90
41312;BME280;27061;41.648;24.568;2023-06-14T04:39:36;85767.72;;;15.24;85.87
41312;BME280;27061;41.648;24.568;2023-06-14T04:42:04;85733.44;;;15.05;85.16
41312;BME280;27061;41.648;24.568;2023-06-14T04:44:33;85781.53;;;15.28;85.60
41312;BME280;27061;41.648;24.568;2023-06-14T04:47:03;85691.75;;;14.78;85.64
41312;BME280;27061;41.648;24.568;2023-06-14T04:49:31;85785.22;;;15.46;86.09
41312;BME280;27061;41.648;24.568;2023-06-14T04:51:59;85778.31;;;15.43;85.67
41312;BME280;27061;41.648;24.568;2023-06-14T04:54:39;85802.63;;;15.69;84.74
41312;BME280;27061;41.648;24.568;2023-06-14T04:57:10;85705.13;;;14.96;84.35
41312;BME280;27061;41.648;24.568;2023-06-14T04:59:43;85640.53;;;14.44;84.75
41312;BME280;27061;41.648;24.568;2023-06-14T05:02:11;85634.09;;;14.50;84.83
41312;BME280;27061;41.648;24.568;2023-06-14T05:04:42;85783.56;;;15.55;85.27
41312;BME280;27061;41.648;24.568;2023-06-14T05:07:09;85734.31;;;15.22;85.02
41312;BME280;27061;41.648;24.568;2023-06-14T05:09:37;85734.19;;;15.26;85.18
41312;BME280;27061;41.648;24.568;2023-06-14T05:12:05;85717.84;;;15.14;85.11
41312;BME280;27061;41.648;24.568;2023-06-14T05:14:35;85836.72;;;15.94;85.30
41312;BME280;27061;41.648;24.568;2023-06-14T05:17:03;85819.28;;;15.94;84.96
41312;BME280;27061;41.648;24.568;2023-06-14T05:19:30;85833.81;;;15.98;84.79
41312;BME280;27061;41.648;24.568;2023-06-14T05:21:57;85669.81;;;14.66;85.36
41312;BME280;27061;41.648;24.568;2023-06-14T05:24:24;85786.03;;;15.65;85.52
41312;BME280;27061;41.648;24.568;2023-06-14T05:26:52;85841.88;;;16.08;84.92
41312;BME280;27061;41.648;24.568;2023-06-14T05:29:19;85779.06;;;15.64;84.79
41312;BME280;27061;41.648;24.568;2023-06-14T05:31:46;85674.41;;;14.98;84.77
41312;BME280;27061;41.648;24.568;2023-06-14T05:34:14;85850.97;;;16.30;85.59
41312;BME280;27061;41.648;24.568;2023-06-14T05:36:41;85841.00;;;16.35;86.18
41312;BME280;27061;41.648;24.568;2023-06-14T05:39:08;85719.00;;;15.44;85.74
41312;BME280;27061;41.648;24.568;2023-06-14T05:41:36;85846.25;;;16.45;84.74
41312;BME280;27061;41.648;24.568;2023-06-14T05:44:03;85840.59;;;16.47;85.10
41312;BME280;27061;41.648;24.568;2023-06-14T05:46:31;85808.16;;;16.15;85.96
41312;BME280;27061;41.648;24.568;2023-06-14T05:48:58;85804.00;;;16.14;85.46
41312;BME280;27061;41.648;24.568;2023-06-14T05:51:25;85775.59;;;16.07;85.53
41312;BME280;27061;41.648;24.568;2023-06-14T05:53:53;85706.28;;;15.49;85.03
41312;BME280;27061;41.648;24.568;2023-06-14T05:56:21;85815.84;;;16.35;85.47
41312;BME280;27061;41.648;24.568;2023-06-14T05:58:49;85797.25;;;16.27;84.94
41312;BME280;27061;41.648;24.568;2023-06-14T06:01:17;85743.97;;;15.92;84.62
41312;BME280;27061;41.648;24.568;2023-06-14T06:03:44;85833.94;;;16.79;84.82
41312;BME280;27061;41.648;24.568;2023-06-14T06:06:15;85819.88;;;16.61;84.56
41312;BME280;27061;41.648;24.568;2023-06-14T06:08:43;85859.97;;;16.95;85.13
41312;BME280;27061;41.648;24.568;2023-06-14T06:11:10;85761.97;;;16.18;85.89
41312;BME280;27061;41.648;24.568;2023-06-14T06:13:37;85699.38;;;15.69;87.18
41312;BME280;27061;41.648;24.568;2023-06-14T06:16:06;85806.47;;;16.65;85.98
41312;BME280;27061;41.648;24.568;2023-06-14T06:18:33;85870.72;;;17.07;85.24
41312;BME280;27061;41.648;24.568;2023-06-14T06:21:00;85855.28;;;17.08;85.55
41312;BME280;27061;41.648;24.568;2023-06-14T06:23:29;85838.75;;;17.02;85.56
41312;BME280;27061;41.648;24.568;2023-06-14T06:25:57;85802.03;;;16.72;85.06
41312;BME280;27061;41.648;24.568;2023-06-14T06:28:25;85742.09;;;16.28;84.41
41312;BME280;27061;41.648;24.568;2023-06-14T06:30:52;85717.41;;;16.14;84.22
41312;BME280;27061;41.648;24.568;2023-06-14T06:33:21;85722.72;;;16.22;83.22
41312;BME280;27061;41.648;24.568;2023-06-14T06:35:49;85820.53;;;17.03;83.53
41312;BME280;27061;41.648;24.568;2023-06-14T06:38:16;85831.34;;;17.13;84.04
41312;BME280;27061;41.648;24.568;2023-06-14T06:40:45;85892.06;;;17.56;83.74
41312;BME280;27061;41.648;24.568;2023-06-14T06:43:12;85823.03;;;17.11;83.82
41312;BME280;27061;41.648;24.568;2023-06-14T06:45:45;85842.19;;;17.23;83.64
41312;BME280;27061;41.648;24.568;2023-06-14T06:48:12;85726.59;;;16.52;83.12
41312;BME280;27061;41.648;24.568;2023-06-14T06:50:39;85870.41;;;17.54;83.56
41312;BME280;27061;41.648;24.568;2023-06-14T06:53:07;85862.09;;;17.52;82.90
41312;BME280;27061;41.648;24.568;2023-06-14T06:55:34;85884.88;;;17.80;81.86
41312;BME280;27061;41.648;24.568;2023-06-14T06:58:02;85749.00;;;16.70;81.52
41312;BME280;27061;41.648;24.568;2023-06-14T07:00:32;85754.16;;;16.82;80.78
41312;BME280;27061;41.648;24.568;2023-06-14T07:02:59;85882.47;;;17.88;80.81
41312;BME280;27061;41.648;24.568;2023-06-14T07:05:26;85757.03;;;16.80;80.88
41312;BME280;27061;41.648;24.568;2023-06-14T07:07:54;85886.41;;;17.96;80.96
41312;BME280;27061;41.648;24.568;2023-06-14T07:10:24;85878.16;;;17.91;81.09
41312;BME280;27061;41.648;24.568;2023-06-14T07:12:51;85868.63;;;17.84;77.05
41312;BME280;27061;41.648;24.568;2023-06-14T07:15:18;85870.06;;;17.83;77.74
41312;BME280;27061;41.648;24.568;2023-06-14T07:17:45;85855.38;;;17.83;79.08
41312;BME280;27061;41.648;24.568;2023-06-14T07:20:13;85853.19;;;17.85;79.52
41312;BME280;27061;41.648;24.568;2023-06-14T07:22:41;85761.94;;;17.17;79.58
41312;BME280;27061;41.648;24.568;2023-06-14T07:25:10;85852.72;;;17.98;79.38
41312;BME280;27061;41.648;24.568;2023-06-14T07:27:42;85883.88;;;18.25;78.83
41312;BME280;27061;41.648;24.568;2023-06-14T07:30:10;85853.09;;;18.06;78.84
41312;BME280;27061;41.648;24.568;2023-06-14T07:32:38;85889.31;;;18.29;76.67
41312;BME280;27061;41.648;24.568;2023-06-14T07:35:06;85852.94;;;18.10;77.08
41312;BME280;27061;41.648;24.568;2023-06-14T07:37:33;85847.00;;;18.18;79.59
41312;BME280;27061;41.648;24.568;2023-06-14T07:40:00;85606.66;;;16.27;78.03
41312;BME280;27061;41.648;24.568;2023-06-14T07:42:31;85881.91;;;18.57;77.56
41312;BME280;27061;41.648;24.568;2023-06-14T07:44:58;85822.19;;;18.08;77.69
41312;BME280;27061;41.648;24.568;2023-06-14T07:47:25;85772.09;;;17.65;78.53
41312;BME280;27061;41.648;24.568;2023-06-14T07:49:53;85860.06;;;18.43;77.68
41312;BME280;27061;41.648;24.568;2023-06-14T07:52:21;85660.53;;;17.00;77.43
41312;BME280;27061;41.648;24.568;2023-06-14T07:54:49;85742.66;;;17.66;74.57
41312;BME280;27061;41.648;24.568;2023-06-14T07:57:16;85884.34;;;18.84;74.78
41312;BME280;27061;41.648;24.568;2023-06-14T07:59:43;85819.94;;;18.29;71.53
41312;BME280;27061;41.648;24.568;2023-06-14T08:02:11;85726.91;;;17.75;71.84
41312;BME280;27061;41.648;24.568;2023-06-14T08:04:41;85776.50;;;18.12;75.00
41312;BME280;27061;41.648;24.568;2023-06-14T08:07:09;85782.91;;;18.10;76.20
41312;BME280;27061;41.648;24.568;2023-06-14T08:09:36;85859.53;;;18.74;75.83
41312;BME280;27061;41.648;24.568;2023-06-14T08:12:07;85847.94;;;18.65;76.07
41312;BME280;27061;41.648;24.568;2023-06-14T08:14:37;85846.44;;;18.68;73.26
41312;BME280;27061;41.648;24.568;2023-06-14T08:17:04;85801.00;;;18.30;70.51
41312;BME280;27061;41.648;24.568;2023-06-14T08:19:32;85736.25;;;17.86;70.49
41312;BME280;27061;41.648;24.568;2023-06-14T08:21:59;85898.47;;;18.98;73.00
41312;BME280;27061;41.648;24.568;2023-06-14T08:24:26;85769.66;;;18.09;74.59
41312;BME280;27061;41.648;24.568;2023-06-14T08:26:55;85916.94;;;19.27;75.43
41312;BME280;27061;41.648;24.568;2023-06-14T08:29:24;85743.72;;;17.91;75.66
41312;BME280;27061;41.648;24.568;2023-06-14T08:31:51;85921.09;;;19.28;74.71
41312;BME280;27061;41.648;24.568;2023-06-14T08:34:18;85763.44;;;18.06;71.94
41312;BME280;27061;41.648;24.568;2023-06-14T08:36:45;85861.66;;;18.73;75.01
41312;BME280;27061;41.648;24.568;2023-06-14T08:39:13;85901.22;;;19.17;72.96
41312;BME280;27061;41.648;24.568;2023-06-14T08:41:42;85874.50;;;19.01;75.09
41312;BME280;27061;41.648;24.568;2023-06-14T08:44:10;85884.88;;;19.05;75.06
41312;BME280;27061;41.648;24.568;2023-06-14T08:46:37;85904.44;;;19.24;74.24
41312;BME280;27061;41.648;24.568;2023-06-14T08:49:05;85881.31;;;19.07;75.19
41312;BME280;27061;41.648;24.568;2023-06-14T08:51:35;85919.72;;;19.44;74.45
41312;BME280;27061;41.648;24.568;2023-06-14T08:54:05;85854.94;;;18.99;74.47
41312;BME280;27061;41.648;24.568;2023-06-14T08:56:33;85873.38;;;19.11;74.61
41312;BME280;27061;41.648;24.568;2023-06-14T08:59:03;85911.75;;;19.50;74.38
41312;BME280;27061;41.648;24.568;2023-06-14T09:01:34;85915.06;;;19.55;73.72
41312;BME280;27061;41.648;24.568;2023-06-14T09:04:02;85908.69;;;19.56;73.55
41312;BME280;27061;41.648;24.568;2023-06-14T09:06:29;85881.47;;;19.36;72.80
41312;BME280;27061;41.648;24.568;2023-06-14T09:08:57;85918.88;;;19.81;70.11
41312;BME280;27061;41.648;24.568;2023-06-14T09:11:24;85834.63;;;19.16;69.39
41312;BME280;27061;41.648;24.568;2023-06-14T09:13:53;85917.16;;;19.71;69.72
41312;BME280;27061;41.648;24.568;2023-06-14T09:16:20;85844.22;;;19.21;70.33
41312;BME280;27061;41.648;24.568;2023-06-14T09:18:48;85803.59;;;19.03;70.44
41312;BME280;27061;41.648;24.568;2023-06-14T09:21:16;85873.97;;;19.47;71.02
41312;BME280;27061;41.648;24.568;2023-06-14T09:23:45;85894.28;;;19.64;70.58
41312;BME280;27061;41.648;24.568;2023-06-14T09:26:15;85921.72;;;19.95;70.47
41312;BME280;27061;41.648;24.568;2023-06-14T09:28:47;85857.22;;;19.45;70.07
41312;BME280;27061;41.648;24.568;2023-06-14T09:31:16;85864.63;;;19.36;66.40
41312;BME280;27061;41.648;24.568;2023-06-14T09:33:48;85906.59;;;19.71;68.25
41312;BME280;27061;41.648;24.568;2023-06-14T09:36:24;85907.13;;;19.76;68.44
41312;BME280;27061;41.648;24.568;2023-06-14T09:41:38;85905.34;;;19.68;66.39
41312;BME280;27061;41.648;24.568;2023-06-14T09:44:08;85850.19;;;19.13;66.54
41312;BME280;27061;41.648;24.568;2023-06-14T09:46:44;85914.94;;;19.73;68.04
41312;BME280;27061;41.648;24.568;2023-06-14T09:49:11;85911.56;;;19.54;67.02
41312;BME280;27061;41.648;24.568;2023-06-14T09:51:45;85888.59;;;19.50;65.96
41312;BME280;27061;41.648;24.568;2023-06-14T09:54:22;85860.72;;;19.12;66.31
41312;BME280;27061;41.648;24.568;2023-06-14T09:56:51;85878.25;;;19.13;66.82
41312;BME280;27061;41.648;24.568;2023-06-14T09:59:22;85911.75;;;19.50;66.46
41312;BME280;27061;41.648;24.568;2023-06-14T10:01:58;85897.78;;;19.31;67.46
41312;BME280;27061;41.648;24.568;2023-06-14T10:04:29;85890.13;;;19.30;67.65
41312;BME280;27061;41.648;24.568;2023-06-14T10:06:58;85828.69;;;18.90;67.01
41312;BME280;27061;41.648;24.568;2023-06-14T10:09:28;85924.00;;;19.59;67.41
41312;BME280;27061;41.648;24.568;2023-06-14T10:11:59;85892.41;;;19.42;68.23
41312;BME280;27061;41.648;24.568;2023-06-14T10:14:27;85862.94;;;19.10;67.94
41312;BME280;27061;41.648;24.568;2023-06-14T10:17:04;85888.78;;;19.29;67.85
41312;BME280;27061;41.648;24.568;2023-06-14T10:19:42;85890.56;;;19.36;69.11
41312;BME280;27061;41.648;24.568;2023-06-14T10:22:17;85852.06;;;19.01;68.60
41312;BME280;27061;41.648;24.568;2023-06-14T10:24:46;85919.31;;;19.70;68.82
41312;BME280;27061;41.648;24.568;2023-06-14T10:27:15;85878.38;;;19.42;66.99
41312;BME280;27061;41.648;24.568;2023-06-14T10:32:23;85853.84;;;18.92;66.57
41312;BME280;27061;41.648;24.568;2023-06-14T10:35:05;85922.13;;;19.54;69.14
41312;BME280;27061;41.648;24.568;2023-06-14T10:37:35;85922.78;;;19.71;68.93
41312;BME280;27061;41.648;24.568;2023-06-14T10:40:05;85835.91;;;19.02;67.58
41312;BME280;27061;41.648;24.568;2023-06-14T10:42:37;85885.78;;;19.33;68.71
41312;BME280;27061;41.648;24.568;2023-06-14T10:45:05;85925.19;;;19.64;70.23
41312;BME280;27061;41.648;24.568;2023-06-14T10:47:34;85903.25;;;19.52;70.45
41312;BME280;27061;41.648;24.568;2023-06-14T10:52:33;85924.78;;;19.58;70.65
41312;BME280;27061;41.648;24.568;2023-06-14T10:55:16;85892.41;;;19.42;71.66
41312;BME280;27061;41.648;24.568;2023-06-14T10:57:52;85833.00;;;18.87;72.49
41312;BME280;27061;41.648;24.568;2023-06-14T11:00:27;85787.81;;;18.62;72.88
41312;BME280;27061;41.648;24.568;2023-06-14T11:03:42;85907.66;;;19.47;71.89
41312;BME280;27061;41.648;24.568;2023-06-14T11:06:22;85905.69;;;19.44;72.70
41312;BME280;27061;41.648;24.568;2023-06-14T11:09:12;85921.00;;;19.63;72.45
41312;BME280;27061;41.648;24.568;2023-06-14T11:11:48;85881.97;;;19.24;72.89
41312;BME280;27061;41.648;24.568;2023-06-14T11:14:17;85632.47;;;17.38;74.29
41312;BME280;27061;41.648;24.568;2023-06-14T11:16:49;85878.31;;;19.27;75.28
41312;BME280;27061;41.648;24.568;2023-06-14T11:19:16;85784.41;;;18.59;76.55
41312;BME280;27061;41.648;24.568;2023-06-14T11:21:48;85782.28;;;18.60;77.59
41312;BME280;27061;41.648;24.568;2023-06-14T11:24:17;85844.84;;;19.07;77.74
41312;BME280;27061;41.648;24.568;2023-06-14T11:26:47;85932.81;;;19.83;77.01
41312;BME280;27061;41.648;24.568;2023-06-14T11:29:16;85929.53;;;19.93;70.64
41312;BME280;27061;41.648;24.568;2023-06-14T11:31:44;85934.81;;;20.01;69.10
41312;BME280;27061;41.648;24.568;2023-06-14T11:34:19;85920.88;;;19.82;70.42
41312;BME280;27061;41.648;24.568;2023-06-14T11:36:47;85854.66;;;19.39;70.32
41312;BME280;27061;41.648;24.568;2023-06-14T11:39:15;85924.66;;;19.77;71.20
41312;BME280;27061;41.648;24.568;2023-06-14T11:41:44;85950.84;;;19.88;67.15
41312;BME280;27061;41.648;24.568;2023-06-14T11:44:12;85950.88;;;19.71;69.29
41312;BME280;27061;41.648;24.568;2023-06-14T11:46:39;85778.25;;;18.38;66.56
41312;BME280;27061;41.648;24.568;2023-06-14T11:49:07;85781.97;;;18.16;67.60
41312;BME280;27061;41.648;24.568;2023-06-14T11:51:37;85944.56;;;19.37;67.98
41312;BME280;27061;41.648;24.568;2023-06-14T11:54:06;85776.75;;;17.70;68.33
41312;BME280;27061;41.648;24.568;2023-06-14T11:56:34;85838.66;;;18.00;70.41
41312;BME280;27061;41.648;24.568;2023-06-14T11:59:05;85910.59;;;18.41;69.77
41312;BME280;27061;41.648;24.568;2023-06-14T12:01:36;85839.88;;;17.86;70.02
41312;BME280;27061;41.648;24.568;2023-06-14T12:04:05;85942.31;;;18.54;70.26
41312;BME280;27061;41.648;24.568;2023-06-14T12:06:33;85931.88;;;18.34;70.57
41312;BME280;27061;41.648;24.568;2023-06-14T12:09:04;85923.03;;;18.27;73.98
41312;BME280;27061;41.648;24.568;2023-06-14T12:11:35;85924.81;;;18.35;74.12
41312;BME280;27061;41.648;24.568;2023-06-14T12:14:04;85942.84;;;18.40;75.33
41312;BME280;27061;41.648;24.568;2023-06-14T12:16:33;85919.53;;;18.26;77.09
41312;BME280;27061;41.648;24.568;2023-06-14T12:19:15;85801.78;;;17.18;77.89
41312;BME280;27061;41.648;24.568;2023-06-14T12:21:45;85951.03;;;18.46;77.42
41312;BME280;27061;41.648;24.568;2023-06-14T12:24:16;85919.63;;;18.24;78.46
41312;BME280;27061;41.648;24.568;2023-06-14T12:26:43;85814.00;;;17.48;77.84
41312;BME280;27061;41.648;24.568;2023-06-14T12:29:12;85920.16;;;18.29;77.70
41312;BME280;27061;41.648;24.568;2023-06-14T12:31:40;85947.31;;;18.51;76.12
41312;BME280;27061;41.648;24.568;2023-06-14T12:34:08;85937.69;;;18.46;76.69
41312;BME280;27061;41.648;24.568;2023-06-14T12:36:36;85967.94;;;18.62;74.72
41312;BME280;27061;41.648;24.568;2023-06-14T12:39:08;85942.31;;;18.35;75.46
41312;BME280;27061;41.648;24.568;2023-06-14T12:41:36;85885.94;;;18.08;76.14
41312;BME280;27061;41.648;24.568;2023-06-14T12:44:04;85745.78;;;17.01;77.55
41312;BME280;27061;41.648;24.568;2023-06-14T12:46:31;85913.72;;;18.14;79.44
41312;BME280;27061;41.648;24.568;2023-06-14T12:48:59;85891.25;;;17.97;80.65
41312;BME280;27061;41.648;24.568;2023-06-14T12:51:26;85921.06;;;18.23;79.73
41312;BME280;27061;41.648;24.568;2023-06-14T12:53:54;85902.88;;;18.22;80.44
41312;BME280;27061;41.648;24.568;2023-06-14T12:56:21;85901.91;;;18.30;80.74
41312;BME280;27061;41.648;24.568;2023-06-14T12:58:50;85921.31;;;18.53;80.71
41312;BME280;27061;41.648;24.568;2023-06-14T13:01:18;85947.31;;;18.70;80.33
41312;BME280;27061;41.648;24.568;2023-06-14T13:03:49;85922.31;;;18.64;81.49
41312;BME280;27061;41.648;24.568;2023-06-14T13:06:17;85778.13;;;17.52;80.67
41312;BME280;27061;41.648;24.568;2023-06-14T13:08:45;85904.75;;;18.82;79.90
41312;BME280;27061;41.648;24.568;2023-06-14T13:11:12;85892.31;;;18.77;81.17
41312;BME280;27061;41.648;24.568;2023-06-14T13:13:39;85852.50;;;18.56;79.89
41312;BME280;27061;41.648;24.568;2023-06-14T13:16:06;85929.09;;;19.21;73.83